Punta Cana, Dominican Republic
Current Conditions -  °F | °C
As of 8:00 PM on Sunday 21 Dec 2014 (Local Time) from MDPC Reporting Station
Few Clouds Few Clouds  
Wind Chill: 77°   Ceiling: Unl
Heat Index: 79°   Visibility: 6mi
Dew Point: 68°   Wind: 7mph
Humidity: 74%   Direction: 90°E
Pressure: 30.03"   Gusts: NA
Location:  18.57°N, 68.36°W
Report Text: MDPC 220000Z 09006KT 9999 FEW023 25/20 Q1017 NOSIG
Loading
Personal Weather Stations






























Interactive Weather Map New forecast layout! Learn more

10-Day Weather Forecast

Advertisements
Track Severe Weather on mobile